createdAt,value
2023-04-15T00:00:40.350Z,101476.91
2023-04-15T00:03:41.511Z,101472.53
2023-04-15T00:06:42.365Z,101477.69
2023-04-15T00:09:43.354Z,101477.56
2023-04-15T00:12:37.386Z,101476.22
2023-04-15T00:15:38.361Z,101488.50
2023-04-15T00:18:39.383Z,101482.09
2023-04-15T00:21:40.350Z,101481.38
2023-04-15T00:24:41.376Z,101472.84
2023-04-15T00:27:35.359Z,101479.06
2023-04-15T00:30:36.503Z,101479.00
2023-04-15T00:33:38.357Z,101476.56
2023-04-15T00:36:40.352Z,101484.88
2023-04-15T00:39:41.365Z,101471.19
2023-04-15T00:42:42.371Z,101479.28
2023-04-15T00:45:43.460Z,101476.00
2023-04-15T00:48:45.352Z,101484.50
2023-04-15T00:51:46.373Z,101484.69
2023-04-15T00:54:47.387Z,101482.78
2023-04-15T00:58:06.508Z,101487.38
2023-04-15T01:00:56.616Z,101489.75
2023-04-15T01:03:57.439Z,101491.44
2023-04-15T01:06:58.401Z,101487.22
2023-04-15T01:09:59.325Z,101483.56
2023-04-15T01:13:00.362Z,101483.19
2023-04-15T01:16:01.336Z,101486.06
2023-04-15T01:19:02.628Z,101483.28
2023-04-15T01:22:03.336Z,101487.75
2023-04-15T01:25:13.377Z,101484.03
2023-04-15T01:28:14.313Z,101486.81
2023-04-15T01:31:22.539Z,101484.69
2023-04-15T01:34:42.337Z,101485.09
2023-04-15T01:38:03.394Z,101478.41
2023-04-15T01:41:06.314Z,101476.91
2023-04-15T01:44:08.417Z,101490.34
2023-04-15T01:47:10.316Z,101483.63
2023-04-15T01:50:12.362Z,101480.22
2023-04-15T01:53:14.341Z,101484.63
2023-04-15T01:56:16.979Z,101476.44
2023-04-15T01:59:18.335Z,101481.19
2023-04-15T02:02:20.582Z,101483.84
2023-04-15T02:05:24.331Z,101478.72
2023-04-15T02:08:26.333Z,101485.75
2023-04-15T02:11:28.344Z,101476.56
2023-04-15T02:14:32.386Z,101483.03
2023-04-15T02:17:34.361Z,101485.34
2023-04-15T02:20:37.359Z,101490.44
2023-04-15T02:23:39.337Z,101490.66
2023-04-15T02:26:41.355Z,101488.63
2023-04-15T02:30:01.762Z,101487.47
2023-04-15T02:32:51.396Z,101485.91
2023-04-15T02:35:53.347Z,101494.03
2023-04-15T02:38:56.368Z,101483.34
2023-04-15T02:41:59.356Z,101484.84
2023-04-15T02:45:01.362Z,101480.84
2023-04-15T02:48:03.314Z,101481.22
2023-04-15T02:51:05.445Z,101486.81
2023-04-15T02:54:08.531Z,101490.06
2023-04-15T02:57:12.370Z,101485.41
2023-04-15T03:00:16.319Z,101485.91
2023-04-15T03:03:19.637Z,101485.56
2023-04-15T03:06:22.304Z,101486.25
2023-04-15T03:09:24.367Z,101490.72
2023-04-15T03:12:27.317Z,101483.63
2023-04-15T03:15:29.429Z,101485.97
2023-04-15T03:18:31.366Z,101481.72
2023-04-15T03:21:33.366Z,101494.16
2023-04-15T03:24:36.322Z,101481.59
2023-04-15T03:27:39.369Z,101482.25
2023-04-15T03:30:41.314Z,101486.59
2023-04-15T03:33:43.374Z,101481.09
2023-04-15T03:36:45.317Z,101495.22
2023-04-15T03:39:47.350Z,101492.84
2023-04-15T03:42:49.328Z,101491.25
2023-04-15T03:45:52.387Z,101499.22
2023-04-15T03:48:54.326Z,101491.16
2023-04-15T03:51:56.370Z,101496.31
2023-04-15T03:54:58.435Z,101485.69
2023-04-15T03:58:00.356Z,101498.78
2023-04-15T04:01:02.325Z,101494.41
2023-04-15T04:04:04.724Z,101487.56
2023-04-15T04:07:06.316Z,101491.66
2023-04-15T04:10:08.359Z,101495.78
2023-04-15T04:13:10.347Z,101490.31
2023-04-15T04:16:12.467Z,101492.25
2023-04-15T04:19:14.292Z,101491.75
2023-04-15T04:22:16.364Z,101489.59
2023-04-15T04:25:18.326Z,101484.47
2023-04-15T04:28:47.343Z,101440.66
2023-04-15T04:31:49.355Z,101487.53
2023-04-15T04:34:51.352Z,101492.28
2023-04-15T04:37:53.308Z,101499.44
2023-04-15T04:40:55.354Z,101495.75
2023-04-15T04:43:57.290Z,101493.09
2023-04-15T04:46:59.348Z,101499.38
2023-04-15T04:50:01.297Z,101501.38
2023-04-15T04:53:03.345Z,101487.13
2023-04-15T04:56:05.292Z,101497.84
2023-04-15T04:59:07.348Z,101500.75
2023-04-15T05:02:10.925Z,101500.97
2023-04-15T05:05:12.517Z,101500.94
2023-04-15T05:08:14.303Z,101503.34
2023-04-15T05:11:16.336Z,101495.13
2023-04-15T05:14:18.310Z,101493.97
2023-04-15T05:17:20.363Z,101502.38
2023-04-15T05:20:22.340Z,101494.69
2023-04-15T05:23:49.351Z,101498.59
2023-04-15T05:26:51.305Z,101505.97
2023-04-15T05:29:53.349Z,101501.38
2023-04-15T05:32:55.323Z,101499.97
2023-04-15T05:35:57.351Z,101505.50
2023-04-15T05:38:59.654Z,101499.22
2023-04-15T05:42:01.388Z,101496.94
2023-04-15T05:45:03.314Z,101494.31
2023-04-15T05:48:07.342Z,101509.09
2023-04-15T05:51:09.307Z,101509.81
2023-04-15T05:54:11.346Z,101508.25
2023-04-15T05:57:13.307Z,101508.81
2023-04-15T06:00:15.328Z,101512.56
2023-04-15T06:03:18.408Z,101510.16
2023-04-15T06:06:20.634Z,101506.78
2023-04-15T06:09:24.284Z,101509.72
2023-04-15T06:12:26.332Z,101506.09
2023-04-15T06:15:28.306Z,101507.47
2023-04-15T06:18:30.352Z,101504.09
2023-04-15T06:21:38.306Z,101508.81
2023-04-15T06:24:40.346Z,101508.53
2023-04-15T06:27:42.293Z,101515.88
2023-04-15T06:30:45.385Z,101516.09
2023-04-15T06:33:47.280Z,101519.94
2023-04-15T06:36:50.420Z,101525.31
2023-04-15T06:40:10.522Z,101535.28
2023-04-15T06:42:59.333Z,101521.53
2023-04-15T06:46:01.429Z,101523.91
2023-04-15T06:49:03.548Z,101527.81
2023-04-15T06:52:05.346Z,101536.00
2023-04-15T06:55:07.325Z,101539.50
2023-04-15T06:58:09.316Z,101538.19
2023-04-15T07:01:11.335Z,101539.06
2023-04-15T07:04:13.342Z,101534.00
2023-04-15T07:07:15.549Z,101544.38
2023-04-15T07:10:18.297Z,101538.97
2023-04-15T07:13:20.327Z,101539.06
2023-04-15T07:16:22.305Z,101541.16
2023-04-15T07:19:24.333Z,101544.44
2023-04-15T07:22:26.321Z,101542.56
2023-04-15T07:25:28.332Z,101547.03
2023-04-15T07:28:30.305Z,101541.81
2023-04-15T07:31:32.472Z,101531.13
2023-04-15T07:34:34.265Z,101538.34
2023-04-15T07:37:36.327Z,101536.88
2023-04-15T07:40:38.323Z,101543.69
2023-04-15T07:43:40.320Z,101544.56
2023-04-15T07:46:45.584Z,101534.94
2023-04-15T07:49:47.342Z,101547.38
2023-04-15T07:52:49.299Z,101545.53
2023-04-15T07:55:51.333Z,101547.06
2023-04-15T07:58:53.325Z,101558.47
2023-04-15T08:01:55.378Z,101548.13
2023-04-15T08:04:57.359Z,101550.22
2023-04-15T08:07:59.455Z,101548.06
2023-04-15T08:11:02.312Z,101552.00
2023-04-15T08:14:04.320Z,101541.88
2023-04-15T08:17:24.477Z,101553.84
2023-04-15T08:20:13.303Z,101555.34
2023-04-15T08:23:15.269Z,101559.88
2023-04-15T08:26:17.302Z,101561.47
2023-04-15T08:29:19.264Z,101550.28
2023-04-15T08:32:21.335Z,101551.31
2023-04-15T08:35:23.279Z,101551.72
2023-04-15T08:38:25.301Z,101558.63
2023-04-15T08:41:37.284Z,101551.09
2023-04-15T08:44:40.290Z,101548.06
2023-04-15T08:47:43.334Z,101544.28
2023-04-15T08:50:46.309Z,101547.63
2023-04-15T08:53:48.286Z,101547.28
2023-04-15T08:56:50.331Z,101551.38
2023-04-15T09:00:02.973Z,101548.38
2023-04-15T09:03:05.358Z,101553.13
2023-04-15T09:06:07.308Z,101552.09
2023-04-15T09:09:09.367Z,101551.66
2023-04-15T09:12:11.272Z,101551.31
2023-04-15T09:15:18.302Z,101540.63
2023-04-15T09:18:23.236Z,101543.91
2023-04-15T09:21:30.314Z,101545.25
2023-04-15T09:24:32.287Z,101554.44
2023-04-15T09:27:34.312Z,101553.31
2023-04-15T09:30:36.293Z,101557.59
2023-04-15T09:33:38.304Z,101539.06
2023-04-15T09:36:40.257Z,101542.31
2023-04-15T09:39:42.319Z,101543.59
2023-04-15T09:42:44.427Z,101537.13
2023-04-15T09:45:46.330Z,101536.03
2023-04-15T09:48:48.286Z,101539.66
2023-04-15T09:52:03.944Z,101535.34
2023-04-15T09:55:08.269Z,101536.69
2023-04-15T09:58:10.319Z,101539.72
2023-04-15T10:01:14.296Z,101544.22
2023-04-15T10:04:19.452Z,101552.16
2023-04-15T10:07:27.260Z,101542.50
2023-04-15T10:10:35.339Z,101545.06
2023-04-15T10:13:44.265Z,101537.97
2023-04-15T10:16:46.287Z,101539.50
2023-04-15T10:19:50.310Z,101534.31
2023-04-15T10:22:52.295Z,101536.59
2023-04-15T10:25:54.304Z,101539.72
2023-04-15T10:28:57.279Z,101539.06
2023-04-15T10:32:01.279Z,101533.31
2023-04-15T10:35:05.295Z,101528.84
2023-04-15T10:38:07.245Z,101534.03
2023-04-15T10:41:25.308Z,101543.59
2023-04-15T10:44:27.259Z,101538.44
2023-04-15T10:47:30.368Z,101538.19
2023-04-15T10:50:32.280Z,101538.84
2023-04-15T10:53:40.284Z,101544.25
2023-04-15T10:56:43.292Z,101539.66
2023-04-15T10:59:45.314Z,101539.34
2023-04-15T11:02:56.338Z,101535.66
2023-04-15T11:06:05.325Z,101539.47
2023-04-15T11:09:12.235Z,101548.09
2023-04-15T11:12:23.343Z,101543.94
2023-04-15T11:15:47.270Z,101531.53
2023-04-15T11:18:49.381Z,101540.38
2023-04-15T11:21:51.276Z,101537.91
2023-04-15T11:25:02.313Z,101535.38
2023-04-15T11:28:06.244Z,101540.50
2023-04-15T11:31:08.295Z,101540.50
2023-04-15T11:34:11.246Z,101530.00
2023-04-15T11:37:13.282Z,101526.91
2023-04-15T11:40:16.229Z,101531.44
2023-04-15T11:43:28.291Z,101529.00
2023-04-15T11:46:30.223Z,101527.38
2023-04-15T11:49:48.529Z,101529.88
2023-04-15T11:52:49.240Z,101533.53
2023-04-15T11:55:55.290Z,101543.47
2023-04-15T11:58:57.358Z,101522.81
2023-04-15T12:01:59.346Z,101527.63
2023-04-15T12:05:00.300Z,101526.28
2023-04-15T12:08:13.280Z,101519.09
2023-04-15T12:11:14.243Z,101533.44
2023-04-15T12:14:21.421Z,101520.03
2023-04-15T12:17:24.273Z,101526.31
2023-04-15T12:20:25.274Z,101536.44
2023-04-15T12:23:26.237Z,101542.31
2023-04-15T12:26:27.267Z,101536.22
2023-04-15T12:29:28.297Z,101543.13
2023-04-15T12:32:30.290Z,101535.63
2023-04-15T12:35:31.258Z,101543.00
2023-04-15T12:38:34.019Z,101551.84
2023-04-15T12:41:35.299Z,101553.44
2023-04-15T12:44:37.297Z,101552.44
2023-04-15T12:47:38.297Z,101554.41
2023-04-15T12:50:39.281Z,101558.88
2023-04-15T12:53:40.230Z,101558.28
2023-04-15T12:56:41.305Z,101562.47
2023-04-15T12:59:42.232Z,101560.09
2023-04-15T13:02:43.469Z,101558.34
2023-04-15T13:05:46.233Z,101565.81
2023-04-15T13:08:57.318Z,101564.00
2023-04-15T13:11:59.213Z,101564.59
2023-04-15T13:15:00.469Z,101569.53
2023-04-15T13:18:01.314Z,101571.41
2023-04-15T13:21:05.162Z,101558.97
2023-04-15T13:24:06.382Z,101563.09
2023-04-15T13:27:07.556Z,101584.94
2023-04-15T13:30:08.295Z,101570.69
2023-04-15T13:33:09.263Z,101577.97
2023-04-15T13:36:10.231Z,101577.38
2023-04-15T13:39:12.266Z,101574.06
2023-04-15T13:42:13.229Z,101573.00
2023-04-15T13:45:14.263Z,101580.06
2023-04-15T13:48:15.281Z,101581.63
2023-04-15T13:51:16.267Z,101587.66
2023-04-15T13:54:17.246Z,101576.47
2023-04-15T13:57:18.269Z,101577.97
2023-04-15T14:00:19.240Z,101579.47
2023-04-15T14:03:20.353Z,101579.25
2023-04-15T14:06:21.246Z,101586.16
2023-04-15T14:09:24.981Z,101576.00
2023-04-15T14:12:27.226Z,101576.13
2023-04-15T14:15:28.323Z,101584.44
2023-04-15T14:18:29.269Z,101588.56
2023-04-15T14:21:30.261Z,101584.09
2023-04-15T14:24:35.231Z,101583.88
2023-04-15T14:27:36.306Z,101600.47
2023-04-15T14:30:37.317Z,101593.31
2023-04-15T14:33:44.266Z,101596.28
2023-04-15T14:36:45.203Z,101604.47
2023-04-15T14:39:46.283Z,101610.31
2023-04-15T14:42:47.211Z,101605.88
2023-04-15T14:45:48.346Z,101614.16
2023-04-15T14:48:49.235Z,101613.28
2023-04-15T14:52:15.282Z,101617.06
2023-04-15T14:55:17.223Z,101621.47
2023-04-15T14:58:18.292Z,101623.47
2023-04-15T15:01:19.260Z,101618.47
2023-04-15T15:04:20.372Z,101622.78
2023-04-15T15:07:21.207Z,101626.31
2023-04-15T15:10:32.704Z,101621.16
2023-04-15T15:13:43.216Z,101630.47
2023-04-15T15:16:44.597Z,101623.16
2023-04-15T15:19:45.241Z,101630.06
2023-04-15T15:22:46.239Z,101629.75
2023-04-15T15:25:47.245Z,101641.09
2023-04-15T15:29:13.259Z,101644.38
2023-04-15T15:32:14.217Z,101649.63
2023-04-15T15:35:15.255Z,101650.06
2023-04-15T15:38:16.231Z,101654.56
2023-04-15T15:41:17.254Z,101651.84
2023-04-15T15:44:18.274Z,101660.00
2023-04-15T15:47:20.277Z,101658.44
2023-04-15T15:50:21.222Z,101655.59
2023-04-15T15:53:27.249Z,101663.81
2023-04-15T15:56:28.248Z,101668.13
2023-04-15T15:59:30.266Z,101661.78
2023-04-15T16:02:56.309Z,101671.56
2023-04-15T16:05:52.252Z,101670.66
2023-04-15T16:08:53.226Z,101673.44
2023-04-15T16:11:54.251Z,101678.47
2023-04-15T16:14:55.225Z,101682.19
2023-04-15T16:17:56.424Z,101670.94
2023-04-15T16:20:57.219Z,101675.66
2023-04-15T16:24:23.258Z,101679.75
2023-04-15T16:27:24.212Z,101685.63
2023-04-15T16:30:25.290Z,101695.59
2023-04-15T16:33:26.207Z,101688.88
2023-04-15T16:36:27.393Z,101695.84
2023-04-15T16:39:30.192Z,101691.78
2023-04-15T16:42:31.260Z,101706.88
2023-04-15T16:45:32.219Z,101712.16
2023-04-15T16:48:33.376Z,101710.00
2023-04-15T16:51:34.224Z,101713.47
2023-04-15T16:54:36.231Z,101714.03
2023-04-15T16:58:01.037Z,101714.09
2023-04-15T17:00:58.302Z,101713.47
2023-04-15T17:04:00.354Z,101717.94
2023-04-15T17:07:01.245Z,101724.06
2023-04-15T17:10:05.202Z,101726.44
2023-04-15T17:13:06.242Z,101728.25
2023-04-15T17:16:07.272Z,101719.53
2023-04-15T17:19:08.440Z,101732.97
2023-04-15T17:22:18.243Z,101731.09
2023-04-15T17:25:19.224Z,101730.13
2023-04-15T17:28:21.224Z,101736.19
2023-04-15T17:31:25.275Z,101743.69
2023-04-15T17:34:49.657Z,101741.69
2023-04-15T17:38:12.247Z,101748.38
2023-04-15T17:41:33.233Z,101757.41
2023-04-15T17:44:54.235Z,101762.91
2023-04-15T17:48:15.245Z,101761.84
2023-04-15T17:51:36.254Z,101752.88
2023-04-15T17:54:57.205Z,101763.53
2023-04-15T17:58:18.226Z,101773.09
2023-04-15T18:01:39.304Z,101771.84
2023-04-15T18:05:02.512Z,101774.31
2023-04-15T18:08:23.210Z,101782.78
2023-04-15T18:11:45.260Z,101779.72
2023-04-15T18:15:06.214Z,101783.94
2023-04-15T18:18:27.248Z,101793.22
2023-04-15T18:21:21.339Z,101793.50
2023-04-15T18:24:15.317Z,101792.19
2023-04-15T18:27:16.226Z,101787.44
2023-04-15T18:30:17.234Z,101791.97
2023-04-15T18:33:18.194Z,101799.34
2023-04-15T18:36:19.221Z,101799.47
2023-04-15T18:39:20.199Z,101800.88
2023-04-15T18:42:21.228Z,101808.00
2023-04-15T18:45:22.197Z,101804.78
2023-04-15T18:48:24.253Z,101805.91
2023-04-15T18:51:25.174Z,101805.34
2023-04-15T18:54:26.265Z,101806.50
2023-04-15T18:57:28.792Z,101802.16
2023-04-15T19:00:33.234Z,101813.78
2023-04-15T19:03:34.259Z,101820.06
2023-04-15T19:06:35.235Z,101811.09
2023-04-15T19:09:36.186Z,101819.97
2023-04-15T19:12:37.254Z,101816.91
2023-04-15T19:15:38.208Z,101809.16
2023-04-15T19:18:40.251Z,101815.63
2023-04-15T19:21:41.196Z,101819.75
2023-04-15T19:24:42.425Z,101812.09
2023-04-15T19:27:45.187Z,101823.94
2023-04-15T19:30:46.260Z,101810.13
2023-04-15T19:33:48.262Z,101819.53
2023-04-15T19:36:49.229Z,101834.06
2023-04-15T19:39:50.204Z,101831.13
2023-04-15T19:42:51.241Z,101833.81
2023-04-15T19:45:53.245Z,101833.34
2023-04-15T19:48:54.260Z,101828.44
2023-04-15T19:51:55.199Z,101825.16
2023-04-15T19:54:56.206Z,101828.53
2023-04-15T19:58:03.800Z,101824.75
2023-04-15T20:01:04.287Z,101837.19
2023-04-15T20:04:06.619Z,101836.75
2023-04-15T20:07:07.322Z,101834.00
2023-04-15T20:10:12.461Z,101842.50
2023-04-15T20:13:14.220Z,101843.59
2023-04-15T20:16:15.213Z,101845.69
2023-04-15T20:19:16.248Z,101844.34
2023-04-15T20:22:17.173Z,101855.50
2023-04-15T20:25:18.314Z,101846.94
2023-04-15T20:28:19.171Z,101856.72
2023-04-15T20:31:20.310Z,101856.84
2023-04-15T20:34:21.192Z,101853.66
2023-04-15T20:37:22.264Z,101854.84
2023-04-15T20:40:23.189Z,101847.13
2023-04-15T20:43:24.209Z,101856.53
2023-04-15T20:46:27.356Z,101849.63
2023-04-15T20:49:28.232Z,101846.06
2023-04-15T20:52:29.172Z,101845.41
2023-04-15T20:55:30.861Z,101849.91
2023-04-15T20:58:33.171Z,101857.19
2023-04-15T21:01:34.273Z,101863.38
2023-04-15T21:04:35.175Z,101868.38
2023-04-15T21:07:36.232Z,101857.13
2023-04-15T21:10:41.172Z,101866.88
2023-04-15T21:13:42.293Z,101865.94
2023-04-15T21:16:43.319Z,101868.06
2023-04-15T21:19:44.208Z,101871.44
2023-04-15T21:22:45.227Z,101864.06
2023-04-15T21:25:46.260Z,101867.19
2023-04-15T21:28:47.185Z,101869.41
2023-04-15T21:31:48.227Z,101864.72
2023-04-15T21:34:49.182Z,101868.94
2023-04-15T21:37:51.205Z,101877.72
2023-04-15T21:40:52.183Z,101874.94
2023-04-15T21:43:53.246Z,101874.50
2023-04-15T21:46:54.255Z,101885.66
2023-04-15T21:49:55.206Z,101884.38
2023-04-15T21:52:56.174Z,101886.59
2023-04-15T21:55:57.232Z,101889.88
2023-04-15T21:58:58.185Z,101888.13
2023-04-15T22:01:59.395Z,101889.72
2023-04-15T22:05:00.180Z,101897.19
2023-04-15T22:08:05.214Z,101900.94
2023-04-15T22:11:06.123Z,101897.44
2023-04-15T22:14:07.237Z,101909.72
2023-04-15T22:17:08.143Z,101909.56
2023-04-15T22:20:09.187Z,101907.22
2023-04-15T22:23:14.197Z,101908.22
2023-04-15T22:26:15.366Z,101906.03
2023-04-15T22:29:16.185Z,101917.78
2023-04-15T22:32:23.244Z,101918.75
2023-04-15T22:35:24.381Z,101917.41
2023-04-15T22:38:25.201Z,101921.41
2023-04-15T22:41:26.150Z,101918.25
2023-04-15T22:44:27.213Z,101905.00
2023-04-15T22:47:28.160Z,101903.03
2023-04-15T22:50:29.184Z,101907.75
2023-04-15T22:53:30.155Z,101911.69
2023-04-15T22:56:34.192Z,101904.28
2023-04-15T22:59:35.161Z,101906.03
2023-04-15T23:02:36.272Z,101901.25
2023-04-15T23:05:37.177Z,101901.50
2023-04-15T23:08:38.331Z,101901.72
2023-04-15T23:11:39.188Z,101901.50
2023-04-15T23:14:42.194Z,101903.06
2023-04-15T23:17:43.180Z,101901.69
2023-04-15T23:20:44.202Z,101904.94
2023-04-15T23:23:45.132Z,101906.47
2023-04-15T23:26:46.374Z,101903.50
2023-04-15T23:29:47.441Z,101911.81
2023-04-15T23:32:48.236Z,101907.16
2023-04-15T23:35:50.150Z,101917.59
2023-04-15T23:38:51.195Z,101909.25
2023-04-15T23:41:52.150Z,101911.97
2023-04-15T23:44:53.221Z,101911.91
2023-04-15T23:47:54.197Z,101919.75
2023-04-15T23:50:55.191Z,101913.47
2023-04-15T23:53:56.187Z,101918.69
2023-04-15T23:56:57.175Z,101912.38
2023-04-15T23:59:59.161Z,101907.91
